TAF and METAR

METAR for Hermes Quijada International Airport

SAWE 170200Z 27016KT CAVOK 02/M00 Q1002
Report created 17. jul 04:00
wind 16 knots from W (270°) Clear sky Temperature 2° with dewpoint at -0° (Humidity 86.58%) Pressure 1002 hPa

TAF for Hermes Quijada International Airport

TAF SAWE 162300Z 1700/1724 29015KT CAVOK TX06/1718Z TNM02/1706Z BECMG 1703/1706 29006KT PROB30 TEMPO 1708/1712 VRB03KT 0900 FG BECMG 1713/1715 02012KT BECMG 1722/1724 BKN020 SCT060
Report created 17. jul 01:00

between 17. jul 02:00 - 17. jul 02:00

wind 15 knots from WNW (290°) Clear sky Max temperature 06° expected today at around 20 o'clock Min temperature -02° expected today at around 08 o'clock

becoming between 17. jul 05:00 - 17. jul 08:00

wind 6 knots from WNW (290°)

probably (~30%) temporarily between 17. jul 10:00 - 17. jul 14:00

wind 3 knots from various directions visibility 900 meters fog

becoming between 17. jul 15:00 - 17. jul 17:00

wind 12 knots from NNE (020°)

becoming between 18. jul 00:00 - 17. jul 02:00

broken clouds (~75% cover) at 2000 feet scattered clouds (~50% cover) at 6000 feet
Hermes Quijada International Airport in Argentina at 22m

Latest 5 airports